createdAt,value
2018-08-22T00:01:10.398Z,55.37
2018-08-22T00:03:38.774Z,55.01
2018-08-22T00:06:07.199Z,55.07
2018-08-22T00:08:40.866Z,55.08
2018-08-22T00:11:09.385Z,54.76
2018-08-22T00:13:37.786Z,54.90
2018-08-22T00:16:06.330Z,54.68
2018-08-22T00:18:34.661Z,54.87
2018-08-22T00:21:03.125Z,55.53
2018-08-22T00:23:31.501Z,55.61
2018-08-22T00:25:59.922Z,55.51
2018-08-22T00:28:28.336Z,55.71
2018-08-22T00:31:03.012Z,55.60
2018-08-22T00:33:31.332Z,56.23
2018-08-22T00:35:59.660Z,55.84
2018-08-22T00:38:28.104Z,56.08
2018-08-22T00:40:56.475Z,56.23
2018-08-22T00:43:24.799Z,56.41
2018-08-22T00:45:53.245Z,56.28
2018-08-22T00:48:21.612Z,55.96
2018-08-22T00:50:49.988Z,56.08
2018-08-22T00:53:18.337Z,56.24
2018-08-22T00:55:46.673Z,56.08
2018-08-22T00:58:15.018Z,56.02
2018-08-22T01:00:43.699Z,56.36
2018-08-22T01:03:12.013Z,56.01
2018-08-22T01:05:40.357Z,56.21
2018-08-22T01:08:08.939Z,57.10
2018-08-22T01:10:37.407Z,57.14
2018-08-22T01:13:05.727Z,57.26
2018-08-22T01:15:34.282Z,57.23
2018-08-22T01:18:02.659Z,57.84
2018-08-22T01:20:30.985Z,58.26
2018-08-22T01:22:59.395Z,58.39
2018-08-22T01:25:27.811Z,58.35
2018-08-22T01:27:56.190Z,58.22
2018-08-22T01:30:24.567Z,57.72
2018-08-22T01:32:52.902Z,58.12
2018-08-22T01:35:21.314Z,57.89
2018-08-22T01:37:49.890Z,57.76
2018-08-22T01:40:18.210Z,58.10
2018-08-22T01:42:46.531Z,58.19
2018-08-22T01:45:15.122Z,58.52
2018-08-22T01:47:43.444Z,58.25
2018-08-22T01:50:11.774Z,58.02
2018-08-22T01:52:40.208Z,58.45
2018-08-22T01:55:08.646Z,57.66
2018-08-22T01:57:37.034Z,57.94
2018-08-22T02:00:06.270Z,57.51
2018-08-22T02:02:34.825Z,57.64
2018-08-22T02:05:03.214Z,57.29
2018-08-22T02:07:31.711Z,57.04
2018-08-22T02:10:00.026Z,57.04
2018-08-22T02:12:28.387Z,57.49
2018-08-22T02:14:56.845Z,57.01
2018-08-22T02:17:25.274Z,57.13
2018-08-22T02:19:53.586Z,57.74
2018-08-22T02:22:22.130Z,58.11
2018-08-22T02:24:50.510Z,58.17
2018-08-22T02:27:18.827Z,58.24
2018-08-22T02:29:47.379Z,57.91
2018-08-22T02:32:15.697Z,57.82
2018-08-22T02:34:44.017Z,58.11
2018-08-22T02:37:12.454Z,57.72
2018-08-22T02:39:40.890Z,57.72
2018-08-22T02:42:09.221Z,58.16
2018-08-22T02:44:37.743Z,57.67
2018-08-22T02:47:06.068Z,58.00
2018-08-22T02:49:34.397Z,57.87
2018-08-22T02:52:02.989Z,57.83
2018-08-22T02:54:31.294Z,57.64
2018-08-22T02:56:59.647Z,57.78
2018-08-22T02:59:28.125Z,58.70
2018-08-22T03:01:56.438Z,58.78
2018-08-22T03:04:24.877Z,58.09
2018-08-22T03:06:53.362Z,58.06
2018-08-22T03:09:21.696Z,57.94
2018-08-22T03:11:50.029Z,58.06
2018-08-22T03:14:18.446Z,58.48
2018-08-22T03:16:47.079Z,58.36
2018-08-22T03:19:15.398Z,58.19
2018-08-22T03:21:43.780Z,58.82
2018-08-22T03:24:12.101Z,58.42
2018-08-22T03:26:40.489Z,58.49
2018-08-22T03:29:09.014Z,58.92
2018-08-22T03:31:37.349Z,59.07
2018-08-22T03:34:05.745Z,59.69
2018-08-22T03:36:34.112Z,59.78
2018-08-22T03:39:02.442Z,59.91
2018-08-22T03:41:30.761Z,60.11
2018-08-22T03:43:59.358Z,60.66
2018-08-22T03:46:27.690Z,60.54
2018-08-22T03:48:56.023Z,60.82
2018-08-22T03:51:24.559Z,61.21
2018-08-22T03:53:52.966Z,61.08
2018-08-22T03:56:21.300Z,60.29
2018-08-22T03:58:49.849Z,59.91
2018-08-22T04:01:18.203Z,59.71
2018-08-22T04:03:46.579Z,59.99
2018-08-22T04:06:15.061Z,59.66
2018-08-22T04:08:43.451Z,60.07
2018-08-22T04:11:11.786Z,60.31
2018-08-22T04:13:40.299Z,60.81
2018-08-22T04:16:08.647Z,60.28
2018-08-22T04:18:36.995Z,59.83
2018-08-22T04:21:05.587Z,60.37
2018-08-22T04:23:33.927Z,60.60
2018-08-22T04:26:02.260Z,61.02
2018-08-22T04:28:30.891Z,60.64
2018-08-22T04:30:59.345Z,60.31
2018-08-22T04:33:27.740Z,60.37
2018-08-22T04:35:56.316Z,59.78
2018-08-22T04:38:24.702Z,59.80
2018-08-22T04:40:59.939Z,59.94
2018-08-22T04:43:28.312Z,59.58
2018-08-22T04:45:56.653Z,59.71
2018-08-22T04:48:25.172Z,59.93
2018-08-22T04:50:53.497Z,59.96
2018-08-22T04:53:21.824Z,59.90
2018-08-22T04:55:50.404Z,60.06
2018-08-22T04:58:18.772Z,60.04
2018-08-22T05:00:47.616Z,60.28
2018-08-22T05:03:16.250Z,59.96
2018-08-22T05:05:44.644Z,60.09
2018-08-22T05:08:12.972Z,60.06
2018-08-22T05:10:41.438Z,60.04
2018-08-22T05:13:09.780Z,60.21
2018-08-22T05:15:38.103Z,60.64
2018-08-22T05:18:07.688Z,60.41
2018-08-22T05:20:36.012Z,60.39
2018-08-22T05:23:04.792Z,60.04
2018-08-22T05:25:33.510Z,60.53
2018-08-22T05:28:01.911Z,60.88
2018-08-22T05:30:30.388Z,60.91
2018-08-22T05:32:58.950Z,61.72
2018-08-22T05:35:27.292Z,62.14
2018-08-22T05:37:55.724Z,62.05
2018-08-22T05:40:24.290Z,62.03
2018-08-22T05:42:52.612Z,61.67
2018-08-22T05:45:20.946Z,61.39
2018-08-22T05:47:49.321Z,61.18
2018-08-22T05:50:17.644Z,61.26
2018-08-22T05:52:45.963Z,61.32
2018-08-22T05:55:14.417Z,61.03
2018-08-22T05:57:42.929Z,61.10
2018-08-22T06:00:11.228Z,60.85
2018-08-22T06:02:39.794Z,60.25
2018-08-22T06:05:08.907Z,60.72
2018-08-22T06:07:37.233Z,60.34
2018-08-22T06:10:06.731Z,60.14
2018-08-22T06:12:35.171Z,60.06
2018-08-22T06:15:04.830Z,60.05
2018-08-22T06:17:33.961Z,59.88
2018-08-22T06:20:02.335Z,59.90
2018-08-22T06:22:32.867Z,59.88
2018-08-22T06:25:02.297Z,59.81
2018-08-22T06:27:32.025Z,59.72
2018-08-22T06:30:00.371Z,59.17
2018-08-22T06:32:29.755Z,59.28
2018-08-22T06:35:00.283Z,58.91
2018-08-22T06:37:28.777Z,59.54
2018-08-22T06:39:57.252Z,59.46
2018-08-22T06:42:26.656Z,59.38
2018-08-22T06:44:55.036Z,59.30
2018-08-22T06:47:24.476Z,59.00
2018-08-22T06:49:55.187Z,58.94
2018-08-22T06:52:24.208Z,58.60
2018-08-22T06:54:52.556Z,58.96
2018-08-22T06:57:23.944Z,59.25
2018-08-22T06:59:54.247Z,58.82
2018-08-22T07:02:23.424Z,59.02
2018-08-22T07:04:51.800Z,58.20
2018-08-22T07:07:20.276Z,58.31
2018-08-22T07:09:48.627Z,58.26
2018-08-22T07:12:17.039Z,58.08
2018-08-22T07:14:46.614Z,57.94
2018-08-22T07:17:14.967Z,57.79
2018-08-22T07:19:43.610Z,57.45
2018-08-22T07:22:11.985Z,57.49
2018-08-22T07:24:40.354Z,57.28
2018-08-22T07:27:08.790Z,56.89
2018-08-22T07:29:37.228Z,56.86
2018-08-22T07:32:05.788Z,56.92
2018-08-22T07:34:34.449Z,56.80
2018-08-22T07:37:03.052Z,57.10
2018-08-22T07:39:31.394Z,57.30
2018-08-22T07:41:59.731Z,57.15
2018-08-22T07:44:28.298Z,56.73
2018-08-22T07:46:56.660Z,56.14
2018-08-22T07:49:24.975Z,56.22
2018-08-22T07:51:53.631Z,55.83
2018-08-22T07:54:24.652Z,55.42
2018-08-22T07:56:53.639Z,56.00
2018-08-22T07:59:22.156Z,55.31
2018-08-22T08:01:50.704Z,55.07
2018-08-22T08:04:18.894Z,55.05
2018-08-22T08:06:47.486Z,55.20
2018-08-22T08:09:16.664Z,54.68
2018-08-22T08:11:45.011Z,54.38
2018-08-22T08:14:13.552Z,54.46
2018-08-22T08:16:41.927Z,54.30
2018-08-22T08:19:10.416Z,53.69
2018-08-22T08:21:38.991Z,53.75
2018-08-22T08:24:07.804Z,53.91
2018-08-22T08:26:36.180Z,53.63
2018-08-22T08:29:04.836Z,52.85
2018-08-22T08:31:33.300Z,52.55
2018-08-22T08:34:01.775Z,52.96
2018-08-22T08:36:30.306Z,53.08
2018-08-22T08:38:58.686Z,52.71
2018-08-22T08:41:27.073Z,52.81
2018-08-22T08:43:55.615Z,51.71
2018-08-22T08:46:23.957Z,52.56
2018-08-22T08:48:52.380Z,52.71
2018-08-22T08:51:21.249Z,52.32
2018-08-22T08:53:49.612Z,51.71
2018-08-22T08:56:18.023Z,50.95
2018-08-22T08:58:46.532Z,51.41
2018-08-22T09:01:14.875Z,51.70
2018-08-22T09:03:43.301Z,51.15
2018-08-22T09:06:11.848Z,51.35
2018-08-22T09:08:40.251Z,50.93
2018-08-22T09:11:08.627Z,50.77
2018-08-22T09:13:42.515Z,50.03
2018-08-22T09:16:11.574Z,49.90
2018-08-22T09:18:39.924Z,49.63
2018-08-22T09:21:08.290Z,49.74
2018-08-22T09:23:36.643Z,49.71
2018-08-22T09:26:05.152Z,49.12
2018-08-22T09:28:33.712Z,48.57
2018-08-22T09:31:02.179Z,47.70
2018-08-22T09:33:30.517Z,48.60
2018-08-22T09:35:59.063Z,49.10
2018-08-22T09:38:27.420Z,48.51
2018-08-22T09:40:55.739Z,47.93
2018-08-22T09:43:24.388Z,48.28
2018-08-22T09:45:52.759Z,47.56
2018-08-22T09:48:21.163Z,48.46
2018-08-22T09:50:49.640Z,48.72
2018-08-22T09:53:17.966Z,48.79
2018-08-22T09:55:46.292Z,47.53
2018-08-22T09:58:14.921Z,47.36
2018-08-22T10:00:48.544Z,46.22
2018-08-22T10:03:17.039Z,45.59
2018-08-22T10:05:45.359Z,45.38
2018-08-22T10:08:13.679Z,45.53
2018-08-22T10:10:42.188Z,45.23
2018-08-22T10:13:10.568Z,45.27
2018-08-22T10:15:39.124Z,44.78
2018-08-22T10:18:08.191Z,45.01
2018-08-22T10:20:36.524Z,44.79
2018-08-22T10:23:05.108Z,43.76
2018-08-22T10:25:33.504Z,42.55
2018-08-22T10:28:01.852Z,43.25
2018-08-22T10:30:30.229Z,42.95
2018-08-22T10:32:58.808Z,43.16
2018-08-22T10:35:27.128Z,42.61
2018-08-22T10:37:55.475Z,42.02
2018-08-22T10:40:23.940Z,41.33
2018-08-22T10:42:52.313Z,42.17
2018-08-22T10:45:20.640Z,42.22
2018-08-22T10:47:49.280Z,41.83
2018-08-22T10:50:17.736Z,41.56
2018-08-22T10:52:46.206Z,41.16
2018-08-22T10:55:14.744Z,40.78
2018-08-22T10:57:43.170Z,41.07
2018-08-22T11:00:11.671Z,40.93
2018-08-22T11:02:40.134Z,39.39
2018-08-22T11:05:08.452Z,39.83
2018-08-22T11:07:36.839Z,38.81
2018-08-22T11:10:05.472Z,38.09
2018-08-22T11:12:33.763Z,38.70
2018-08-22T11:15:02.110Z,38.76
2018-08-22T11:17:30.643Z,38.10
2018-08-22T11:19:59.024Z,36.87
2018-08-22T11:22:38.690Z,36.58
2018-08-22T11:25:18.413Z,37.15
2018-08-22T11:27:58.251Z,37.12
2018-08-22T11:37:25.059Z,35.89
2018-08-22T11:39:53.415Z,35.54
2018-08-22T11:42:21.807Z,35.13
2018-08-22T11:44:50.383Z,34.50
2018-08-22T11:47:18.767Z,33.92
2018-08-22T11:49:47.151Z,33.39
2018-08-22T11:52:16.347Z,32.81
2018-08-22T11:54:44.681Z,32.23
2018-08-22T11:57:13.021Z,32.31
2018-08-22T11:59:41.575Z,31.68
2018-08-22T12:02:09.956Z,31.43
2018-08-22T12:04:38.291Z,31.53
2018-08-22T12:07:06.751Z,31.28
2018-08-22T12:09:35.095Z,30.62
2018-08-22T12:12:03.471Z,31.21
2018-08-22T12:14:31.935Z,30.59
2018-08-22T12:17:00.328Z,30.94
2018-08-22T12:19:28.716Z,31.65
2018-08-22T12:21:57.332Z,30.94
2018-08-22T12:24:25.716Z,30.28
2018-08-22T12:26:54.222Z,30.35
2018-08-22T12:29:22.700Z,31.21
2018-08-22T12:31:51.036Z,31.39
2018-08-22T12:34:19.357Z,30.91
2018-08-22T12:36:47.972Z,30.88
2018-08-22T12:39:16.352Z,30.09
2018-08-22T12:41:44.728Z,29.32
2018-08-22T12:44:13.321Z,29.87
2018-08-22T12:46:41.767Z,29.92
2018-08-22T12:49:10.132Z,29.91
2018-08-22T12:51:38.655Z,30.19
2018-08-22T12:54:07.104Z,29.66
2018-08-22T12:56:35.523Z,29.40
2018-08-22T12:59:04.245Z,28.69
2018-08-22T13:01:32.586Z,28.72
2018-08-22T13:04:00.952Z,28.86
2018-08-22T13:06:29.415Z,28.64
2018-08-22T13:08:57.767Z,28.70
2018-08-22T13:11:26.282Z,28.68
2018-08-22T13:13:54.772Z,28.69
2018-08-22T13:16:23.104Z,28.59
2018-08-22T13:18:51.540Z,28.78
2018-08-22T13:21:20.108Z,29.11
2018-08-22T13:23:48.424Z,29.75
2018-08-22T13:26:16.796Z,28.91
2018-08-22T13:28:45.175Z,29.62
2018-08-22T13:31:13.527Z,28.11
2018-08-22T13:33:41.879Z,28.90
2018-08-22T13:36:10.422Z,28.85
2018-08-22T13:38:38.855Z,28.63
2018-08-22T13:41:07.215Z,29.40
2018-08-22T13:43:35.604Z,29.17
2018-08-22T13:46:03.971Z,29.00
2018-08-22T13:48:32.380Z,28.98
2018-08-22T13:51:00.957Z,28.41
2018-08-22T13:53:29.349Z,28.67
2018-08-22T13:55:58.377Z,28.29
2018-08-22T13:58:26.896Z,28.26
2018-08-22T14:00:55.364Z,28.82
2018-08-22T14:03:23.769Z,28.84
2018-08-22T14:05:52.241Z,27.80
2018-08-22T14:08:20.589Z,28.42
2018-08-22T14:10:48.931Z,28.65
2018-08-22T14:13:17.690Z,29.16
2018-08-22T14:15:46.155Z,28.64
2018-08-22T14:18:14.517Z,28.39
2018-08-22T14:20:43.549Z,27.73
2018-08-22T14:23:11.905Z,27.91
2018-08-22T14:25:40.740Z,28.83
2018-08-22T14:28:09.214Z,28.39
2018-08-22T14:30:38.194Z,27.44
2018-08-22T14:33:06.675Z,27.77
2018-08-22T14:35:35.257Z,27.57
2018-08-22T14:38:03.577Z,27.98
2018-08-22T14:40:31.891Z,28.10
2018-08-22T14:43:00.392Z,28.26
2018-08-22T14:45:28.712Z,28.18
2018-08-22T14:47:57.091Z,27.79
2018-08-22T14:50:25.456Z,28.17
2018-08-22T14:52:53.777Z,28.16
2018-08-22T14:55:22.127Z,28.37
2018-08-22T14:57:50.775Z,28.29
2018-08-22T15:00:19.156Z,28.30
2018-08-22T15:02:48.467Z,28.76
2018-08-22T15:05:16.911Z,27.50
2018-08-22T15:07:45.249Z,30.37
2018-08-22T15:10:15.972Z,30.55
2018-08-22T15:12:44.507Z,32.18
2018-08-22T15:15:12.896Z,30.82
2018-08-22T15:17:41.284Z,31.13
2018-08-22T15:20:09.861Z,29.61
2018-08-22T15:22:39.380Z,29.27
2018-08-22T15:25:08.212Z,30.20
2018-08-22T15:27:37.258Z,30.12
2018-08-22T15:30:06.545Z,29.96
2018-08-22T15:32:35.096Z,30.22
2018-08-22T15:35:03.561Z,30.37
2018-08-22T15:37:32.620Z,29.80
2018-08-22T15:40:01.030Z,29.36
2018-08-22T15:42:29.552Z,28.95
2018-08-22T15:44:58.096Z,28.47
2018-08-22T15:47:26.669Z,29.40
2018-08-22T15:49:55.065Z,29.33
2018-08-22T15:52:23.402Z,30.08
2018-08-22T15:55:07.767Z,29.75
2018-08-22T15:57:49.289Z,28.91
2018-08-22T16:00:28.549Z,27.93
2018-08-22T16:02:56.962Z,28.56
2018-08-22T16:05:25.412Z,28.36
2018-08-22T16:07:53.793Z,28.93
2018-08-22T16:10:22.743Z,29.40
2018-08-22T16:12:51.168Z,29.41
2018-08-22T16:15:19.841Z,29.39
2018-08-22T16:17:52.900Z,29.28
2018-08-22T16:20:23.359Z,29.58
2018-08-22T16:22:51.691Z,29.49
2018-08-22T16:25:23.823Z,29.85
2018-08-22T16:27:52.975Z,28.78
2018-08-22T16:30:21.332Z,29.42
2018-08-22T16:32:50.052Z,30.11
2018-08-22T16:35:18.510Z,30.12
2018-08-22T16:38:00.420Z,29.88
2018-08-22T16:40:31.112Z,30.01
2018-08-22T16:42:59.592Z,30.15
2018-08-22T16:45:28.148Z,29.70
2018-08-22T16:47:56.529Z,29.60
2018-08-22T16:50:25.574Z,30.04
2018-08-22T16:52:54.356Z,29.66
2018-08-22T16:55:24.102Z,30.41
2018-08-22T16:57:53.064Z,30.42
2018-08-22T17:00:34.492Z,30.13
2018-08-22T17:03:04.356Z,29.83
2018-08-22T17:05:32.850Z,30.09
2018-08-22T17:08:01.484Z,30.20
2018-08-22T17:11:03.288Z,30.62
2018-08-22T17:13:40.888Z,30.69
2018-08-22T17:16:09.327Z,30.78
2018-08-22T17:18:37.807Z,30.44
2018-08-22T17:21:06.564Z,30.39
2018-08-22T17:23:34.956Z,30.78
2018-08-22T17:26:03.373Z,32.04
2018-08-22T17:28:38.870Z,32.35
2018-08-22T17:31:07.728Z,33.94
2018-08-22T17:33:40.344Z,35.52
2018-08-22T17:36:09.704Z,36.02
2018-08-22T17:38:38.588Z,36.93
2018-08-22T17:41:06.996Z,37.58
2018-08-22T17:43:50.737Z,38.34
2018-08-22T17:46:20.249Z,38.34
2018-08-22T17:48:50.553Z,38.49
2018-08-22T17:51:19.061Z,38.01
2018-08-22T17:53:47.645Z,37.11
2018-08-22T17:56:16.019Z,37.16
2018-08-22T17:58:44.457Z,37.88
2018-08-22T18:01:13.073Z,37.74
2018-08-22T18:03:41.421Z,38.06
2018-08-22T18:06:09.781Z,37.91
2018-08-22T18:08:38.219Z,38.71
2018-08-22T18:11:07.020Z,38.43
2018-08-22T18:13:35.381Z,38.48
2018-08-22T18:16:03.955Z,38.81
2018-08-22T18:18:32.309Z,38.83
2018-08-22T18:21:01.951Z,38.88
2018-08-22T18:23:30.837Z,39.27
2018-08-22T18:25:59.214Z,39.18
2018-08-22T18:28:28.361Z,39.49
2018-08-22T18:30:57.330Z,39.45
2018-08-22T18:33:28.731Z,39.24
2018-08-22T18:35:58.967Z,39.45
2018-08-22T18:38:27.571Z,39.96
2018-08-22T18:41:06.337Z,40.25
2018-08-22T18:43:34.719Z,40.40
2018-08-22T18:46:05.751Z,40.33
2018-08-22T18:48:35.703Z,40.40
2018-08-22T18:51:04.468Z,40.17
2018-08-22T18:53:33.231Z,40.24
2018-08-22T18:56:12.136Z,40.45
2018-08-22T18:58:40.777Z,40.40
2018-08-22T19:01:09.197Z,40.76
2018-08-22T19:03:38.088Z,40.78
2018-08-22T19:06:06.931Z,40.99
2018-08-22T19:08:37.540Z,41.31
2018-08-22T19:11:06.543Z,41.06
2018-08-22T19:13:34.880Z,41.95
2018-08-22T19:16:05.268Z,42.20
2018-08-22T19:18:34.127Z,42.28
2018-08-22T19:21:08.326Z,42.61
2018-08-22T19:23:36.953Z,42.30
2018-08-22T19:26:06.462Z,42.66
2018-08-22T19:29:06.687Z,42.29
2018-08-22T19:31:37.007Z,42.33
2018-08-22T19:34:05.555Z,42.87
2018-08-22T19:36:34.191Z,42.91
2018-08-22T19:39:02.576Z,42.95
2018-08-22T19:41:33.185Z,42.77
2018-08-22T19:44:01.575Z,42.55
2018-08-22T19:46:30.076Z,42.23
2018-08-22T19:48:58.905Z,43.10
2018-08-22T19:51:27.431Z,42.88
2018-08-22T19:54:01.296Z,43.17
2018-08-22T19:56:30.558Z,43.54
2018-08-22T19:58:59.295Z,43.22
2018-08-22T20:01:30.879Z,44.06
2018-08-22T20:03:59.465Z,44.31
2018-08-22T20:06:28.029Z,43.96
2018-08-22T20:08:57.813Z,44.37
2018-08-22T20:11:26.447Z,44.14
2018-08-22T20:14:03.959Z,44.31
2018-08-22T20:16:32.625Z,44.47
2018-08-22T20:19:03.246Z,44.93
2018-08-22T20:21:38.912Z,44.69
2018-08-22T20:24:12.208Z,44.97
2018-08-22T20:26:50.739Z,45.49
2018-08-22T20:29:19.064Z,45.42
2018-08-22T20:31:47.639Z,45.65
2018-08-22T20:34:17.275Z,45.95
2018-08-22T20:36:47.873Z,45.77
2018-08-22T20:39:16.564Z,46.52
2018-08-22T20:41:45.490Z,46.09
2018-08-22T20:44:18.617Z,46.54
2018-08-22T20:46:48.119Z,46.64
2018-08-22T20:49:18.838Z,46.81
2018-08-22T20:51:47.271Z,46.48
2018-08-22T20:54:22.323Z,46.85
2018-08-22T20:56:55.990Z,47.13
2018-08-22T20:59:24.431Z,46.97
2018-08-22T21:01:55.890Z,47.21
2018-08-22T21:04:24.280Z,47.46
2018-08-22T21:06:52.674Z,47.45
2018-08-22T21:09:21.038Z,47.40
2018-08-22T21:11:49.446Z,47.00
2018-08-22T21:14:18.068Z,47.05
2018-08-22T21:16:46.460Z,47.38
2018-08-22T21:19:14.818Z,47.03
2018-08-22T21:21:43.400Z,46.92
2018-08-22T21:24:11.891Z,47.27
2018-08-22T21:26:41.919Z,46.96
2018-08-22T21:29:10.480Z,47.59
2018-08-22T21:31:39.347Z,47.46
2018-08-22T21:34:13.867Z,46.99
2018-08-22T21:36:44.272Z,47.48
2018-08-22T21:39:18.015Z,47.41
2018-08-22T21:41:47.056Z,46.90
2018-08-22T21:44:19.106Z,47.36
2018-08-22T21:46:55.514Z,47.29
2018-08-22T21:49:24.596Z,47.16
2018-08-22T21:51:53.223Z,47.00
2018-08-22T21:54:21.608Z,47.02
2018-08-22T21:56:50.096Z,46.52
2018-08-22T21:59:18.421Z,46.28
2018-08-22T22:01:51.957Z,46.32
2018-08-22T22:04:52.306Z,46.71
2018-08-22T22:07:20.727Z,46.49
2018-08-22T22:09:51.629Z,46.66
2018-08-22T22:12:51.809Z,46.53
2018-08-22T22:15:25.423Z,46.48
2018-08-22T22:17:54.114Z,46.69
2018-08-22T22:20:22.507Z,46.34
2018-08-22T22:22:50.876Z,46.41
2018-08-22T22:25:19.449Z,46.38
2018-08-22T22:27:47.836Z,46.41
2018-08-22T22:30:16.220Z,46.56
2018-08-22T22:32:44.816Z,46.98
2018-08-22T22:35:14.499Z,47.07
2018-08-22T22:37:42.888Z,47.27
2018-08-22T22:40:11.384Z,47.33
2018-08-22T22:42:39.847Z,47.30
2018-08-22T22:45:08.336Z,47.56
2018-08-22T22:47:36.795Z,47.77
2018-08-22T22:50:05.190Z,47.15
2018-08-22T22:52:40.446Z,47.82
2018-08-22T22:55:09.980Z,47.65
2018-08-22T22:57:40.601Z,47.99
2018-08-22T23:00:11.555Z,48.16
2018-08-22T23:02:39.941Z,48.20
2018-08-22T23:05:08.888Z,47.99
2018-08-22T23:07:40.423Z,48.46
2018-08-22T23:10:11.920Z,48.70
2018-08-22T23:12:43.185Z,48.86
2018-08-22T23:15:15.390Z,48.86
2018-08-22T23:17:44.272Z,49.20
2018-08-22T23:20:23.533Z,49.08
2018-08-22T23:22:51.976Z,49.77
2018-08-22T23:25:20.335Z,49.89
2018-08-22T23:27:48.686Z,50.11
2018-08-22T23:30:18.848Z,50.16
2018-08-22T23:32:47.173Z,50.76
2018-08-22T23:35:24.112Z,50.87
2018-08-22T23:37:55.616Z,50.62
2018-08-22T23:40:25.182Z,50.95
2018-08-22T23:42:53.939Z,51.18
2018-08-22T23:45:22.382Z,51.23
2018-08-22T23:47:51.149Z,51.61
2018-08-22T23:50:19.590Z,51.54
2018-08-22T23:52:49.467Z,51.44
2018-08-22T23:55:20.444Z,51.64
2018-08-22T23:57:50.720Z,51.44
